sensor_id;sensor_type;location;lat;lon;timestamp;pressure;altitude;pressure_sealevel;temperature;humidity
51417;BME280;50158;51.528;6.982;2022-07-29T00:01:50;68360;;;18.29;69
51417;BME280;50158;51.528;6.982;2022-07-29T00:06:47;68360;;;18.26;69.49
51417;BME280;50158;51.528;6.982;2022-07-29T00:11:43;68360;;;18.23;69.38
51417;BME280;50158;51.528;6.982;2022-07-29T00:17:54;68370;;;18.29;68.12
51417;BME280;50158;51.528;6.982;2022-07-29T00:22:42;68360;;;18.23;68.9
51417;BME280;50158;51.528;6.982;2022-07-29T00:28:53;68370;;;18.29;68.72
51417;BME280;50158;51.528;6.982;2022-07-29T00:33:49;68360;;;18.27;69.58
51417;BME280;50158;51.528;6.982;2022-07-29T00:43:43;68360;;;18.27;69.66
51417;BME280;50158;51.528;6.982;2022-07-29T00:49:53;68360;;;18.25;68.12
51417;BME280;50158;51.528;6.982;2022-07-29T00:54:50;68340;;;18.1;70.06
51417;BME280;50158;51.528;6.982;2022-07-29T00:59:46;68340;;;18.04;70.35
51417;BME280;50158;51.528;6.982;2022-07-29T01:04:43;68320;;;17.92;71
51417;BME280;50158;51.528;6.982;2022-07-29T01:10:53;68320;;;17.87;69.63
51417;BME280;50158;51.528;6.982;2022-07-29T01:20:55;68310;;;17.79;71.04
51417;BME280;50158;51.528;6.982;2022-07-29T01:23:38;68310;;;17.81;71.4
51417;BME280;50158;51.528;6.982;2022-07-29T01:30:39;68300;;;17.69;71.6
51417;BME280;50158;51.528;6.982;2022-07-29T01:33:10;68300;;;17.7;71.81
51417;BME280;50158;51.528;6.982;2022-07-29T01:36:55;68290;;;17.64;72.6
51417;BME280;50158;51.528;6.982;2022-07-29T01:38:10;68310;;;17.76;71.98
51417;BME280;50158;51.528;6.982;2022-07-29T01:41:39;68300;;;17.67;72.46
51417;BME280;50158;51.528;6.982;2022-07-29T01:44:27;68290;;;17.61;72.58
51417;BME280;50158;51.528;6.982;2022-07-29T01:46:54;68290;;;17.66;72.62
51417;BME280;50158;51.528;6.982;2022-07-29T01:49:21;68290;;;17.61;72.23
51417;BME280;50158;51.528;6.982;2022-07-29T01:51:51;68290;;;17.59;72.77
51417;BME280;50158;51.528;6.982;2022-07-29T01:54:21;68300;;;17.67;73.06
51417;BME280;50158;51.528;6.982;2022-07-29T01:56:45;68290;;;17.57;72.34
51417;BME280;50158;51.528;6.982;2022-07-29T01:59:13;68280;;;17.52;73.03
51417;BME280;50158;51.528;6.982;2022-07-29T02:03:05;68280;;;17.54;73.22
51417;BME280;50158;51.528;6.982;2022-07-29T02:05:32;68280;;;17.52;73.41
51417;BME280;50158;51.528;6.982;2022-07-29T02:08:00;68280;;;17.52;73.79
51417;BME280;50158;51.528;6.982;2022-07-29T02:10:29;68280;;;17.52;73.48
51417;BME280;50158;51.528;6.982;2022-07-29T02:13:05;68280;;;17.48;73.84
51417;BME280;50158;51.528;6.982;2022-07-29T02:14:20;68260;;;17.39;75.35
51417;BME280;50158;51.528;6.982;2022-07-29T02:16:55;68270;;;17.41;74.07
51417;BME280;50158;51.528;6.982;2022-07-29T02:19:23;68260;;;17.37;73.93
51417;BME280;50158;51.528;6.982;2022-07-29T02:21:52;68260;;;17.31;75.13
51417;BME280;50158;51.528;6.982;2022-07-29T02:26:49;68240;;;17.17;77.21
51417;BME280;50158;51.528;6.982;2022-07-29T02:32:01;68230;;;17.08;77.01
51417;BME280;50158;51.528;6.982;2022-07-29T02:35:44;68220;;;16.93;78.89
51417;BME280;50158;51.528;6.982;2022-07-29T02:41:55;68200;;;16.81;78.94
51417;BME280;50158;51.528;6.982;2022-07-29T02:46:53;68200;;;16.77;78.97
51417;BME280;50158;51.528;6.982;2022-07-29T02:51:53;68200;;;16.81;78.19
51417;BME280;50158;51.528;6.982;2022-07-29T02:56:52;68190;;;16.7;79.46
51417;BME280;50158;51.528;6.982;2022-07-29T03:01:57;68190;;;16.73;79.2
51417;BME280;50158;51.528;6.982;2022-07-29T03:06:53;68190;;;16.71;78.64
51417;BME280;50158;51.528;6.982;2022-07-29T03:11:58;68230;;;17.09;76.78
51417;BME280;50158;51.528;6.982;2022-07-29T03:15:49;68250;;;17.24;75.98
51417;BME280;50158;51.528;6.982;2022-07-29T03:20:45;68260;;;17.36;76.38
51417;BME280;50158;51.528;6.982;2022-07-29T03:24:36;68260;;;17.34;75.86
51417;BME280;50158;51.528;6.982;2022-07-29T03:32:02;68260;;;17.35;76.79
51417;BME280;50158;51.528;6.982;2022-07-29T03:35:51;68250;;;17.27;78.15
51417;BME280;50158;51.528;6.982;2022-07-29T03:40:49;68220;;;16.96;79.98
51417;BME280;50158;51.528;6.982;2022-07-29T03:45:45;68200;;;16.81;82.29
51417;BME280;50158;51.528;6.982;2022-07-29T03:50:41;68200;;;16.82;81.32
51417;BME280;50158;51.528;6.982;2022-07-29T03:55:47;68200;;;16.84;81.31
51417;BME280;50158;51.528;6.982;2022-07-29T04:00:50;68200;;;16.81;82.14
51417;BME280;50158;51.528;6.982;2022-07-29T04:06:03;68200;;;16.76;81.25
51417;BME280;50158;51.528;6.982;2022-07-29T04:10:43;68200;;;16.76;81.25
51417;BME280;50158;51.528;6.982;2022-07-29T04:16:04;68200;;;16.75;81.46
51417;BME280;50158;51.528;6.982;2022-07-29T04:19:55;68190;;;16.7;81.43
51417;BME280;50158;51.528;6.982;2022-07-29T04:24:43;68200;;;16.79;81.61
51417;BME280;50158;51.528;6.982;2022-07-29T04:30:54;68190;;;16.69;83.25
51417;BME280;50158;51.528;6.982;2022-07-29T04:34:44;68160;;;16.4;85.33
51417;BME280;50158;51.528;6.982;2022-07-29T04:39:41;68150;;;16.35;88.58
51417;BME280;50158;51.528;6.982;2022-07-29T04:45:52;68120;;;16.04;93.6
51417;BME280;50158;51.528;6.982;2022-07-29T04:50:48;68120;;;16.03;94.95
51417;BME280;50158;51.528;6.982;2022-07-29T04:55:53;68120;;;16.04;94.26
51417;BME280;50158;51.528;6.982;2022-07-29T05:00:50;68120;;;16.03;96.97
51417;BME280;50158;51.528;6.982;2022-07-29T05:05:54;68110;;;16;97.46
51417;BME280;50158;51.528;6.982;2022-07-29T05:10:51;68110;;;15.97;97.17
51417;BME280;50158;51.528;6.982;2022-07-29T05:14:41;68110;;;15.97;96.23
51417;BME280;50158;51.528;6.982;2022-07-29T05:19:54;68110;;;15.96;97.38
51417;BME280;50158;51.528;6.982;2022-07-29T05:23:45;68120;;;16.04;96.05
51417;BME280;50158;51.528;6.982;2022-07-29T05:24:59;68120;;;16.08;96.33
51417;BME280;50158;51.528;6.982;2022-07-29T05:28:41;68130;;;16.12;95.18
51417;BME280;50158;51.528;6.982;2022-07-29T05:33:46;68130;;;16.18;96.82
51417;BME280;50158;51.528;6.982;2022-07-29T05:38:51;68150;;;16.32;93.49
51417;BME280;50158;51.528;6.982;2022-07-29T05:43:56;68140;;;16.27;94.67
51417;BME280;50158;51.528;6.982;2022-07-29T05:48:52;68150;;;16.37;92.91
51417;BME280;50158;51.528;6.982;2022-07-29T05:52:51;68150;;;16.29;91.47
51417;BME280;50158;51.528;6.982;2022-07-29T05:56:41;68170;;;16.51;93.79
51417;BME280;50158;51.528;6.982;2022-07-29T06:03:00;68170;;;16.49;93.88
51417;BME280;50158;51.528;6.982;2022-07-29T06:06:43;68160;;;16.44;95.36
51417;BME280;50158;51.528;6.982;2022-07-29T06:12:53;68140;;;16.23;98.56
51417;BME280;50158;51.528;6.982;2022-07-29T06:17:50;68120;;;16.11;100
51417;BME280;50158;51.528;6.982;2022-07-29T06:22:47;68120;;;16.08;100
51417;BME280;50158;51.528;6.982;2022-07-29T06:27:43;68140;;;16.23;100
51417;BME280;50158;51.528;6.982;2022-07-29T06:32:56;68130;;;16.15;100
51417;BME280;50158;51.528;6.982;2022-07-29T06:37:53;68120;;;16.04;100
51417;BME280;50158;51.528;6.982;2022-07-29T06:42:49;68080;;;15.65;100
51417;BME280;50158;51.528;6.982;2022-07-29T06:46:56;68040;;;15.36;100
51417;BME280;50158;51.528;6.982;2022-07-29T06:50:47;68040;;;15.31;100
51417;BME280;50158;51.528;6.982;2022-07-29T06:55:43;68020;;;15.18;100
51417;BME280;50158;51.528;6.982;2022-07-29T07:01:54;68070;;;15.65;100
51417;BME280;50158;51.528;6.982;2022-07-29T07:06:50;68100;;;15.85;100
51417;BME280;50158;51.528;6.982;2022-07-29T07:11:47;68130;;;16.12;100
51417;BME280;50158;51.528;6.982;2022-07-29T07:20:42;68190;;;16.69;100
51417;BME280;50158;51.528;6.982;2022-07-29T07:26:45;68200;;;16.83;100
51417;BME280;50158;51.528;6.982;2022-07-29T07:31:41;68220;;;16.95;100
51417;BME280;50158;51.528;6.982;2022-07-29T07:37:52;68220;;;17.01;100
51417;BME280;50158;51.528;6.982;2022-07-29T07:48:01;68240;;;17.18;100
51417;BME280;50158;51.528;6.982;2022-07-29T07:51:44;68270;;;17.42;100
51417;BME280;50158;51.528;6.982;2022-07-29T07:56:57;68290;;;17.61;97.03
51417;BME280;50158;51.528;6.982;2022-07-29T08:01:53;68290;;;17.62;99.71
51417;BME280;50158;51.528;6.982;2022-07-29T08:05:44;68290;;;17.61;97.57
51417;BME280;50158;51.528;6.982;2022-07-29T08:11:55;68290;;;17.67;97.7
51417;BME280;50158;51.528;6.982;2022-07-29T08:16:51;68280;;;17.57;100
51417;BME280;50158;51.528;6.982;2022-07-29T08:21:47;68290;;;17.62;100
51417;BME280;50158;51.528;6.982;2022-07-29T08:26:44;68300;;;17.7;100
51417;BME280;50158;51.528;6.982;2022-07-29T08:33:03;68300;;;17.73;100
51417;BME280;50158;51.528;6.982;2022-07-29T08:36:45;68310;;;17.77;100
51417;BME280;50158;51.528;6.982;2022-07-29T08:41:42;68290;;;17.6;100
51417;BME280;50158;51.528;6.982;2022-07-29T08:46:47;68300;;;17.71;100
51417;BME280;50158;51.528;6.982;2022-07-29T08:51:51;68300;;;17.74;100
51417;BME280;50158;51.528;6.982;2022-07-29T08:55:42;68320;;;17.87;100
51417;BME280;50158;51.528;6.982;2022-07-29T09:00:50;68380;;;18.41;100
51417;BME280;50158;51.528;6.982;2022-07-29T09:05:51;68390;;;18.54;100
51417;BME280;50158;51.528;6.982;2022-07-29T09:10:48;68420;;;18.84;100
51417;BME280;50158;51.528;6.982;2022-07-29T09:16:09;68380;;;18.45;100
51417;BME280;50158;51.528;6.982;2022-07-29T09:19:51;68350;;;18.23;100
51417;BME280;50158;51.528;6.982;2022-07-29T09:24:48;68350;;;18.12;100
51417;BME280;50158;51.528;6.982;2022-07-29T09:30:51;68330;;;18.04;100
51417;BME280;50158;51.528;6.982;2022-07-29T09:35:58;68310;;;17.81;100
51417;BME280;50158;51.528;6.982;2022-07-29T09:41:00;68270;;;17.45;100
51417;BME280;50158;51.528;6.982;2022-07-29T09:44:46;68250;;;17.27;100
51417;BME280;50158;51.528;6.982;2022-07-29T09:50:53;68250;;;17.26;100
51417;BME280;50158;51.528;6.982;2022-07-29T09:55:58;68280;;;17.53;100
51417;BME280;50158;51.528;6.982;2022-07-29T10:00:55;68310;;;17.79;100
51417;BME280;50158;51.528;6.982;2022-07-29T10:04:45;68340;;;18.06;100
51417;BME280;50158;51.528;6.982;2022-07-29T10:09:49;68340;;;18.09;100
51417;BME280;50158;51.528;6.982;2022-07-29T10:14:46;68330;;;18;100
51417;BME280;50158;51.528;6.982;2022-07-29T10:19:51;68320;;;17.93;100
51417;BME280;50158;51.528;6.982;2022-07-29T10:24:55;68330;;;18.02;100
51417;BME280;50158;51.528;6.982;2022-07-29T10:27:32;68340;;;18.12;100
51417;BME280;50158;51.528;6.982;2022-07-29T10:44:58;68360;;;18.23;100
51417;BME280;50158;51.528;6.982;2022-07-29T10:49:58;68340;;;18.12;100
51417;BME280;50158;51.528;6.982;2022-07-29T10:54:51;68340;;;18.08;100
51417;BME280;50158;51.528;6.982;2022-07-29T10:59:48;68380;;;18.49;100
51417;BME280;50158;51.528;6.982;2022-07-29T11:05:02;68420;;;18.79;100
51417;BME280;50158;51.528;6.982;2022-07-29T11:09:20;68460;;;19.16;100
51417;BME280;50158;51.528;6.982;2022-07-29T11:13:48;68550;;;20.01;100
51417;BME280;50158;51.528;6.982;2022-07-29T11:19:24;68680;;;21.2;96.09
51417;BME280;50158;51.528;6.982;2022-07-29T11:24:13;68700;;;21.42;94.62
51417;BME280;50158;51.528;6.982;2022-07-29T11:27:39;68790;;;22.2;90.08
51417;BME280;50158;51.528;6.982;2022-07-29T11:33:42;68880;;;23.05;78.77
51417;BME280;50158;51.528;6.982;2022-07-29T11:40:08;68910;;;23.32;75.65
51417;BME280;50158;51.528;6.982;2022-07-29T11:45:16;68990;;;24.09;72.15
51417;BME280;50158;51.528;6.982;2022-07-29T11:47:51;69090;;;24.94;70.04
51417;BME280;50158;51.528;6.982;2022-07-29T11:52:47;69030;;;24.41;64.52
51417;BME280;50158;51.528;6.982;2022-07-29T11:57:53;68970;;;23.94;66.41
51417;BME280;50158;51.528;6.982;2022-07-29T12:02:48;69000;;;24.15;69.84
51417;BME280;50158;51.528;6.982;2022-07-29T12:07:53;69110;;;25.17;70.3
51417;BME280;50158;51.528;6.982;2022-07-29T12:12:51;69110;;;25.13;61.46
51417;BME280;50158;51.528;6.982;2022-07-29T12:21:46;69100;;;25.1;60.58
51417;BME280;50158;51.528;6.982;2022-07-29T12:27:47;68970;;;23.9;65.37
51417;BME280;50158;51.528;6.982;2022-07-29T12:32:45;68940;;;23.63;65.01
51417;BME280;50158;51.528;6.982;2022-07-29T12:37:56;68980;;;23.98;63.94
51417;BME280;50158;51.528;6.982;2022-07-29T12:43:09;69000;;;24.17;63.25
51417;BME280;50158;51.528;6.982;2022-07-29T12:46:44;68980;;;23.93;58.59
51417;BME280;50158;51.528;6.982;2022-07-29T12:51:48;69060;;;24.65;63.58
51417;BME280;50158;51.528;6.982;2022-07-29T12:56:58;69030;;;24.47;61.35
51417;BME280;50158;51.528;6.982;2022-07-29T13:01:50;68970;;;23.87;63.73
51417;BME280;50158;51.528;6.982;2022-07-29T13:06:46;68930;;;23.51;66.31
51417;BME280;50158;51.528;6.982;2022-07-29T13:11:44;68860;;;22.86;70.67
51417;BME280;50158;51.528;6.982;2022-07-29T13:22:59;68900;;;23.27;66.1
51417;BME280;50158;51.528;6.982;2022-07-29T13:31:45;69160;;;25.64;58.7
51417;BME280;50158;51.528;6.982;2022-07-29T13:36:50;69110;;;25.19;58.31
51417;BME280;50158;51.528;6.982;2022-07-29T13:40:41;69240;;;26.39;59.13
51417;BME280;50158;51.528;6.982;2022-07-29T13:46:59;69430;;;28.13;55.32
51417;BME280;50158;51.528;6.982;2022-07-29T13:57:01;69300;;;26.92;52.81
51417;BME280;50158;51.528;6.982;2022-07-29T14:07:02;69400;;;27.81;53.69
51417;BME280;50158;51.528;6.982;2022-07-29T14:10:53;69390;;;27.73;53.9
51417;BME280;50158;51.528;6.982;2022-07-29T14:16:14;69380;;;27.62;53.53
51417;BME280;50158;51.528;6.982;2022-07-29T14:18:42;69380;;;27.66;53.21
51417;BME280;50158;51.528;6.982;2022-07-29T14:25:01;69440;;;28.17;56.06
51417;BME280;50158;51.528;6.982;2022-07-29T14:28:35;69470;;;28.42;52.87
51417;BME280;50158;51.528;6.982;2022-07-29T14:34:54;69560;;;29.31;48.87
51417;BME280;50158;51.528;6.982;2022-07-29T14:39:50;69390;;;27.73;52.53
51417;BME280;50158;51.528;6.982;2022-07-29T14:44:47;69390;;;27.69;52.69
51417;BME280;50158;51.528;6.982;2022-07-29T14:49:43;69410;;;27.93;52.51
51417;BME280;50158;51.528;6.982;2022-07-29T14:56:02;69510;;;28.81;53.19
51417;BME280;50158;51.528;6.982;2022-07-29T14:59:53;69630;;;29.93;48.92
51417;BME280;50158;51.528;6.982;2022-07-29T15:03:43;69680;;;30.34;48.78
51417;BME280;50158;51.528;6.982;2022-07-29T15:09:54;69590;;;29.53;47.7
51417;BME280;50158;51.528;6.982;2022-07-29T15:14:51;69650;;;30.06;52.37
51417;BME280;50158;51.528;6.982;2022-07-29T15:18:41;69650;;;30.14;45
51417;BME280;50158;51.528;6.982;2022-07-29T15:23:46;69760;;;31.14;42.82
51417;BME280;50158;51.528;6.982;2022-07-29T15:28:43;69680;;;30.41;43.98
51417;BME280;50158;51.528;6.982;2022-07-29T15:33:47;69580;;;29.48;49.01
51417;BME280;50158;51.528;6.982;2022-07-29T15:38:44;69600;;;29.67;48.78
51417;BME280;50158;51.528;6.982;2022-07-29T15:44:54;69600;;;29.65;45.18
51417;BME280;50158;51.528;6.982;2022-07-29T15:49:51;69540;;;29.11;48.98
51417;BME280;50158;51.528;6.982;2022-07-29T15:54:48;69540;;;29.13;45.77
51417;BME280;50158;51.528;6.982;2022-07-29T16:00:00;69500;;;28.72;46.73
51417;BME280;50158;51.528;6.982;2022-07-29T16:24:26;69550;;;29.19;45.55
51417;BME280;50158;51.528;6.982;2022-07-29T16:28:16;69540;;;29.1;45.44
51417;BME280;50158;51.528;6.982;2022-07-29T16:30:45;69540;;;29.06;48.23
51417;BME280;50158;51.528;6.982;2022-07-29T16:33:13;69620;;;29.8;47.94
51417;BME280;50158;51.528;6.982;2022-07-29T16:35:41;69510;;;28.83;46.53
51417;BME280;50158;51.528;6.982;2022-07-29T16:38:10;69440;;;28.17;47.97
51417;BME280;50158;51.528;6.982;2022-07-29T16:41:52;69340;;;27.27;50.92
51417;BME280;50158;51.528;6.982;2022-07-29T16:46:32;69280;;;26.73;50.47
51417;BME280;50158;51.528;6.982;2022-07-29T16:49:00;69330;;;27.17;50.83
51417;BME280;50158;51.528;6.982;2022-07-29T16:52:51;69340;;;27.23;48.31
51417;BME280;50158;51.528;6.982;2022-07-29T16:57:48;69290;;;26.84;48.49
51417;BME280;50158;51.528;6.982;2022-07-29T17:02:44;69380;;;27.59;47.42
51417;BME280;50158;51.528;6.982;2022-07-29T17:07:41;69420;;;27.94;46.61
51417;BME280;50158;51.528;6.982;2022-07-29T17:13:51;69440;;;28.12;45.44
51417;BME280;50158;51.528;6.982;2022-07-29T17:18:56;69450;;;28.29;44.1
51417;BME280;50158;51.528;6.982;2022-07-29T17:23:53;69400;;;27.82;44.99
51417;BME280;50158;51.528;6.982;2022-07-29T17:32:48;69360;;;27.4;45.4
51417;BME280;50158;51.528;6.982;2022-07-29T17:37:53;69380;;;27.66;45.39
51417;BME280;50158;51.528;6.982;2022-07-29T17:43:55;69400;;;27.79;46.39
51417;BME280;50158;51.528;6.982;2022-07-29T17:48:52;69360;;;27.48;46.49
51417;BME280;50158;51.528;6.982;2022-07-29T17:53:48;69290;;;26.79;47.56
51417;BME280;50158;51.528;6.982;2022-07-29T17:58:53;69190;;;25.84;50.63
51417;BME280;50158;51.528;6.982;2022-07-29T18:02:43;69140;;;25.4;52.68
51417;BME280;50158;51.528;6.982;2022-07-29T18:09:02;69030;;;24.44;57.6
51417;BME280;50158;51.528;6.982;2022-07-29T18:12:45;69020;;;24.33;58.02
51417;BME280;50158;51.528;6.982;2022-07-29T18:17:49;68980;;;23.93;59.58
51417;BME280;50158;51.528;6.982;2022-07-29T18:22:54;68940;;;23.61;60.72
51417;BME280;50158;51.528;6.982;2022-07-29T18:27:59;68940;;;23.58;62.28
51417;BME280;50158;51.528;6.982;2022-07-29T18:31:49;68910;;;23.3;63.76
51417;BME280;50158;51.528;6.982;2022-07-29T18:36:54;68880;;;23.01;64.5
51417;BME280;50158;51.528;6.982;2022-07-29T18:41:43;68860;;;22.86;65.98
51417;BME280;50158;51.528;6.982;2022-07-29T18:47:53;68820;;;22.46;69.42
51417;BME280;50158;51.528;6.982;2022-07-29T18:51:52;68790;;;22.23;70.93
51417;BME280;50158;51.528;6.982;2022-07-29T18:56:48;68760;;;21.94;73.41
51417;BME280;50158;51.528;6.982;2022-07-29T19:01:45;68730;;;21.67;74.09
51417;BME280;50158;51.528;6.982;2022-07-29T19:06:58;68680;;;21.24;77.74
51417;BME280;50158;51.528;6.982;2022-07-29T19:11:55;68650;;;20.88;79.53
51417;BME280;50158;51.528;6.982;2022-07-29T19:16:51;68610;;;20.57;83.83
51417;BME280;50158;51.528;6.982;2022-07-29T19:20:50;68580;;;20.28;84.61
51417;BME280;50158;51.528;6.982;2022-07-29T19:25:55;68550;;;20;86.82
51417;BME280;50158;51.528;6.982;2022-07-29T19:29:53;68520;;;19.77;87.95
51417;BME280;50158;51.528;6.982;2022-07-29T19:34:50;68500;;;19.56;89.14
51417;BME280;50158;51.528;6.982;2022-07-29T19:40:03;68480;;;19.36;91.38
51417;BME280;50158;51.528;6.982;2022-07-29T19:44:51;68460;;;19.2;94.62
51417;BME280;50158;51.528;6.982;2022-07-29T19:48:42;68440;;;19.02;95.53
51417;BME280;50158;51.528;6.982;2022-07-29T19:53:47;68430;;;18.95;97.77
51417;BME280;50158;51.528;6.982;2022-07-29T19:58:51;68400;;;18.65;99.59
51417;BME280;50158;51.528;6.982;2022-07-29T20:02:42;68400;;;18.59;100
51417;BME280;50158;51.528;6.982;2022-07-29T20:09:01;68370;;;18.39;100
51417;BME280;50158;51.528;6.982;2022-07-29T20:12:51;68380;;;18.42;100
51417;BME280;50158;51.528;6.982;2022-07-29T20:17:56;68350;;;18.21;100
51417;BME280;50158;51.528;6.982;2022-07-29T20:23:01;68340;;;18.06;100
51417;BME280;50158;51.528;6.982;2022-07-29T20:26:43;68320;;;17.93;100
51417;BME280;50158;51.528;6.982;2022-07-29T20:31:48;68310;;;17.79;100
51417;BME280;50158;51.528;6.982;2022-07-29T20:36:44;68310;;;17.77;100
51417;BME280;50158;51.528;6.982;2022-07-29T20:46:46;68290;;;17.6;100
51417;BME280;50158;51.528;6.982;2022-07-29T20:51:58;68260;;;17.41;100
51417;BME280;50158;51.528;6.982;2022-07-29T20:55:41;68260;;;17.4;100
51417;BME280;50158;51.528;6.982;2022-07-29T21:00:54;68250;;;17.26;100
51417;BME280;50158;51.528;6.982;2022-07-29T21:05:50;68240;;;17.18;100
51417;BME280;50158;51.528;6.982;2022-07-29T21:11:03;68240;;;17.14;100
51417;BME280;50158;51.528;6.982;2022-07-29T21:14:46;68230;;;17.08;100
51417;BME280;50158;51.528;6.982;2022-07-29T21:22:43;68230;;;17.04;100
51417;BME280;50158;51.528;6.982;2022-07-29T21:29:02;68210;;;16.91;100
51417;BME280;50158;51.528;6.982;2022-07-29T21:32:53;68210;;;16.85;100
51417;BME280;50158;51.528;6.982;2022-07-29T21:37:49;68220;;;17;100
51417;BME280;50158;51.528;6.982;2022-07-29T21:47:51;68170;;;16.54;100
51417;BME280;50158;51.528;6.982;2022-07-29T21:53:03;68190;;;16.73;100
51417;BME280;50158;51.528;6.982;2022-07-29T21:56:46;68180;;;16.62;100
51417;BME280;50158;51.528;6.982;2022-07-29T22:01:51;68180;;;16.58;100
51417;BME280;50158;51.528;6.982;2022-07-29T22:06:47;68190;;;16.7;100
51417;BME280;50158;51.528;6.982;2022-07-29T22:11:44;68190;;;16.75;100
51417;BME280;50158;51.528;6.982;2022-07-29T22:17:54;68200;;;16.81;100
51417;BME280;50158;51.528;6.982;2022-07-29T22:22:51;68220;;;16.94;100
51417;BME280;50158;51.528;6.982;2022-07-29T22:27:56;68220;;;16.99;100
51417;BME280;50158;51.528;6.982;2022-07-29T22:31:46;68230;;;17.04;100
51417;BME280;50158;51.528;6.982;2022-07-29T22:36:51;68220;;;16.98;100
51417;BME280;50158;51.528;6.982;2022-07-29T22:40:41;68230;;;17.1;100
51417;BME280;50158;51.528;6.982;2022-07-29T22:46:52;68220;;;17.01;100
51417;BME280;50158;51.528;6.982;2022-07-29T22:50:43;68230;;;17.04;100
51417;BME280;50158;51.528;6.982;2022-07-29T22:55:47;68210;;;16.92;100
51417;BME280;50158;51.528;6.982;2022-07-29T23:00:52;68200;;;16.84;100
51417;BME280;50158;51.528;6.982;2022-07-29T23:05:57;68220;;;16.98;100
51417;BME280;50158;51.528;6.982;2022-07-29T23:11:02;68240;;;17.18;100
51417;BME280;50158;51.528;6.982;2022-07-29T23:14:52;68250;;;17.32;100
51417;BME280;50158;51.528;6.982;2022-07-29T23:19:57;68270;;;17.41;100
51417;BME280;50158;51.528;6.982;2022-07-29T23:24:53;68250;;;17.29;100
51417;BME280;50158;51.528;6.982;2022-07-29T23:29:50;68230;;;17.11;100
51417;BME280;50158;51.528;6.982;2022-07-29T23:34:47;68220;;;17.01;100
51417;BME280;50158;51.528;6.982;2022-07-29T23:39:51;68240;;;17.2;100
51417;BME280;50158;51.528;6.982;2022-07-29T23:44:48;68230;;;17.11;100
51417;BME280;50158;51.528;6.982;2022-07-29T23:53:59;68180;;;16.62;100
